createdAt,value
2023-03-21T00:00:54.560Z,14.47
2023-03-21T00:03:25.535Z,14.46
2023-03-21T00:05:56.288Z,14.43
2023-03-21T00:08:28.226Z,14.41
2023-03-21T00:11:00.813Z,14.39
2023-03-21T00:13:33.523Z,14.35
2023-03-21T00:16:13.213Z,14.34
2023-03-21T00:18:52.691Z,14.34
2023-03-21T00:24:19.463Z,14.38
2023-03-21T00:26:49.938Z,14.39
2023-03-21T00:29:21.395Z,14.41
2023-03-21T00:31:51.850Z,14.42
2023-03-21T00:34:31.766Z,14.42
2023-03-21T00:37:14.676Z,14.43
2023-03-21T00:39:49.034Z,14.42
2023-03-21T00:42:19.740Z,14.42
2023-03-21T00:44:50.245Z,14.41
2023-03-21T00:47:20.776Z,14.40
2023-03-21T00:49:53.829Z,14.39
2023-03-21T00:52:38.081Z,14.38
2023-03-21T00:55:14.657Z,14.34
2023-03-21T00:57:50.153Z,14.31
2023-03-21T01:00:28.682Z,14.27
2023-03-21T01:03:17.463Z,14.23
2023-03-21T01:06:05.658Z,14.23
2023-03-21T01:08:51.313Z,14.29
2023-03-21T01:11:25.414Z,14.40
2023-03-21T01:14:07.389Z,14.47
2023-03-21T01:16:46.019Z,14.49
2023-03-21T01:19:27.451Z,14.51
2023-03-21T01:22:01.845Z,14.52
2023-03-21T01:24:33.797Z,14.54
2023-03-21T01:27:06.088Z,14.54
2023-03-21T01:29:36.978Z,14.52
2023-03-21T01:32:07.792Z,14.49
2023-03-21T01:34:38.505Z,14.46
2023-03-21T01:37:09.480Z,14.44
2023-03-21T01:39:46.938Z,14.41
2023-03-21T01:42:17.744Z,14.37
2023-03-21T01:45:01.080Z,14.31
2023-03-21T01:47:45.761Z,14.29
2023-03-21T01:50:37.004Z,14.26
2023-03-21T01:53:23.280Z,14.23
2023-03-21T01:55:54.346Z,14.20
2023-03-21T01:58:48.624Z,14.17
2023-03-21T02:01:34.770Z,14.15
2023-03-21T02:04:05.079Z,14.11
2023-03-21T02:06:43.945Z,14.07
2023-03-21T02:09:36.217Z,14.07
2023-03-21T02:12:08.825Z,14.07
2023-03-21T02:14:41.272Z,14.07
2023-03-21T02:17:29.651Z,14.06
2023-03-21T02:20:46.738Z,14.02
2023-03-21T02:23:56.143Z,14.02
2023-03-21T02:26:42.274Z,14.01
2023-03-21T02:29:35.846Z,13.98
2023-03-21T02:36:26.382Z,13.96
2023-03-21T02:38:58.588Z,13.98
2023-03-21T02:41:40.510Z,14.00
2023-03-21T02:44:19.363Z,14.01
2023-03-21T02:47:05.399Z,14.01
2023-03-21T02:49:43.239Z,14.01
2023-03-21T02:52:35.652Z,14.01
2023-03-21T02:55:15.576Z,13.99
2023-03-21T02:58:06.872Z,14.01
2023-03-21T03:00:44.880Z,14.01
2023-03-21T03:03:28.062Z,14.00
2023-03-21T03:06:12.873Z,14.01
2023-03-21T03:09:02.717Z,14.02
2023-03-21T03:11:36.678Z,14.00
2023-03-21T03:14:41.943Z,14.00
2023-03-21T03:17:26.817Z,13.99
2023-03-21T03:20:16.629Z,13.99
2023-03-21T03:22:57.469Z,13.97
2023-03-21T03:25:42.467Z,13.94
2023-03-21T03:28:18.072Z,13.92
2023-03-21T03:31:07.105Z,13.89
2023-03-21T03:33:45.473Z,13.86
2023-03-21T03:36:31.142Z,13.85
2023-03-21T03:39:06.727Z,13.82
2023-03-21T03:42:05.513Z,13.79
2023-03-21T03:44:36.370Z,13.76
2023-03-21T03:47:17.519Z,13.73
2023-03-21T03:49:58.354Z,13.71
2023-03-21T03:52:40.055Z,13.69
2023-03-21T03:55:18.647Z,13.69
2023-03-21T03:57:50.652Z,13.68
2023-03-21T04:00:22.351Z,13.68
2023-03-21T04:02:53.461Z,13.67
2023-03-21T04:05:26.712Z,13.68
2023-03-21T04:07:57.155Z,13.71
2023-03-21T04:10:36.822Z,13.72
2023-03-21T04:13:07.606Z,13.73
2023-03-21T04:16:04.842Z,13.76
2023-03-21T04:18:35.908Z,13.77
2023-03-21T04:21:10.831Z,13.73
2023-03-21T04:23:42.503Z,13.69
2023-03-21T04:26:13.081Z,13.66
2023-03-21T04:28:49.598Z,13.67
2023-03-21T04:31:54.559Z,13.67
2023-03-21T04:34:28.318Z,13.67
2023-03-21T04:37:01.080Z,13.68
2023-03-21T04:39:31.515Z,13.67
2023-03-21T04:42:02.488Z,13.69
2023-03-21T04:44:32.963Z,13.71
2023-03-21T04:47:03.772Z,13.71
2023-03-21T04:49:35.003Z,13.70
2023-03-21T04:52:06.163Z,13.69
2023-03-21T04:54:37.712Z,13.70
2023-03-21T04:57:08.974Z,13.71
2023-03-21T04:59:40.608Z,13.71
2023-03-21T05:02:11.059Z,13.69
2023-03-21T05:04:41.859Z,13.65
2023-03-21T05:07:12.901Z,13.63
2023-03-21T05:09:43.401Z,13.60
2023-03-21T05:12:13.877Z,13.60
2023-03-21T05:14:44.549Z,13.59
2023-03-21T05:17:24.987Z,13.59
2023-03-21T05:19:56.509Z,13.57
2023-03-21T05:22:29.053Z,13.55
2023-03-21T05:25:00.232Z,13.53
2023-03-21T05:28:02.181Z,13.52
2023-03-21T05:30:34.008Z,13.55
2023-03-21T05:33:05.086Z,13.62
2023-03-21T05:35:36.008Z,13.66
2023-03-21T05:38:08.202Z,13.67
2023-03-21T05:40:51.520Z,13.70
2023-03-21T05:43:22.072Z,13.69
2023-03-21T05:45:52.678Z,13.69
2023-03-21T05:48:23.227Z,13.71
2023-03-21T05:51:05.875Z,13.74
2023-03-21T05:53:36.490Z,13.76
2023-03-21T05:56:08.853Z,13.78
2023-03-21T05:58:54.856Z,13.79
2023-03-21T06:01:26.046Z,13.80
2023-03-21T06:04:09.974Z,13.81
2023-03-21T06:06:40.515Z,13.81
2023-03-21T06:09:11.365Z,13.79
2023-03-21T06:11:48.586Z,13.78
2023-03-21T06:14:26.288Z,13.76
2023-03-21T06:17:15.963Z,13.72
2023-03-21T06:19:51.039Z,13.73
2023-03-21T06:22:27.026Z,13.73
2023-03-21T06:24:57.710Z,13.73
2023-03-21T06:27:28.341Z,13.71
2023-03-21T06:29:59.471Z,13.69
2023-03-21T06:32:30.918Z,13.68
2023-03-21T06:35:06.634Z,13.70
2023-03-21T06:37:38.340Z,13.74
2023-03-21T06:40:10.704Z,13.75
2023-03-21T06:42:41.220Z,13.75
2023-03-21T06:45:14.995Z,13.74
2023-03-21T06:47:46.436Z,13.75
2023-03-21T06:50:27.673Z,13.76
2023-03-21T06:52:59.458Z,13.74
2023-03-21T06:55:30.984Z,13.72
2023-03-21T06:58:02.855Z,13.71
2023-03-21T07:00:34.072Z,13.71
2023-03-21T07:03:04.715Z,13.71
2023-03-21T07:05:36.175Z,13.72
2023-03-21T07:08:10.387Z,13.73
2023-03-21T07:10:45.544Z,13.73
2023-03-21T07:13:16.782Z,13.74
2023-03-21T07:16:01.237Z,13.72
2023-03-21T07:18:32.366Z,13.71
2023-03-21T07:21:02.954Z,13.71
2023-03-21T07:23:33.445Z,13.74
2023-03-21T07:26:04.184Z,13.74
2023-03-21T07:28:35.020Z,13.70
2023-03-21T07:31:09.423Z,13.66
2023-03-21T07:33:39.957Z,13.61
2023-03-21T07:36:13.695Z,13.56
2023-03-21T07:38:45.953Z,13.51
2023-03-21T07:43:53.641Z,13.43
2023-03-21T07:46:24.176Z,13.39
2023-03-21T07:48:54.642Z,13.35
2023-03-21T07:51:26.053Z,13.31
2023-03-21T07:53:56.755Z,13.29
2023-03-21T07:56:27.262Z,13.32
2023-03-21T07:58:57.699Z,13.37
2023-03-21T08:01:28.808Z,13.39
2023-03-21T08:03:59.310Z,13.40
2023-03-21T08:06:32.470Z,13.41
2023-03-21T08:09:03.758Z,13.42
2023-03-21T08:11:34.255Z,13.43
2023-03-21T08:14:04.810Z,13.44
2023-03-21T08:16:35.509Z,13.46
2023-03-21T08:19:05.989Z,13.49
2023-03-21T08:21:39.231Z,13.53
2023-03-21T08:24:09.900Z,13.54
2023-03-21T08:26:40.423Z,13.56
2023-03-21T08:29:10.924Z,13.59
2023-03-21T08:31:42.479Z,13.57
2023-03-21T08:34:13.767Z,13.57
2023-03-21T08:36:44.486Z,13.55
2023-03-21T08:39:15.028Z,13.54
2023-03-21T08:41:45.528Z,13.53
2023-03-21T08:44:17.004Z,13.53
2023-03-21T08:46:47.486Z,13.57
2023-03-21T08:49:17.982Z,13.61
2023-03-21T08:51:48.430Z,13.64
2023-03-21T08:54:23.277Z,13.65
2023-03-21T08:56:53.852Z,13.64
2023-03-21T08:59:24.386Z,13.65
2023-03-21T09:01:55.146Z,13.65
2023-03-21T09:04:27.290Z,13.64
2023-03-21T09:06:58.020Z,13.62
2023-03-21T09:09:29.041Z,13.62
2023-03-21T09:11:59.765Z,13.62
2023-03-21T09:14:30.293Z,13.63
2023-03-21T09:17:00.750Z,13.65
2023-03-21T09:19:31.906Z,13.65
2023-03-21T09:22:02.746Z,13.68
2023-03-21T09:24:33.214Z,13.69
2023-03-21T09:27:04.037Z,13.71
2023-03-21T09:29:35.068Z,13.72
2023-03-21T09:32:06.912Z,13.74
2023-03-21T09:34:41.426Z,13.77
2023-03-21T09:37:13.301Z,13.79
2023-03-21T09:39:44.942Z,13.78
2023-03-21T09:42:30.956Z,13.76
2023-03-21T09:45:12.943Z,13.74
2023-03-21T09:47:53.518Z,13.73
2023-03-21T09:50:31.817Z,13.73
2023-03-21T09:53:07.158Z,13.73
2023-03-21T09:55:41.616Z,13.72
2023-03-21T09:58:29.127Z,13.70
2023-03-21T10:01:07.605Z,13.69
2023-03-21T10:03:39.073Z,13.68
2023-03-21T10:06:15.809Z,13.67
2023-03-21T10:08:48.728Z,13.68
2023-03-21T10:11:25.616Z,13.67
2023-03-21T10:14:00.865Z,13.67
2023-03-21T10:16:34.157Z,13.68
2023-03-21T10:19:11.745Z,13.69
2023-03-21T10:22:03.312Z,13.68
2023-03-21T10:24:36.375Z,13.68
2023-03-21T10:27:07.398Z,13.69
2023-03-21T10:29:43.649Z,13.71
2023-03-21T10:32:18.328Z,13.71
2023-03-21T10:34:51.616Z,13.72
2023-03-21T10:37:23.144Z,13.72
2023-03-21T10:39:56.006Z,13.75
2023-03-21T10:42:31.402Z,13.79
2023-03-21T10:45:02.184Z,13.82
2023-03-21T10:47:35.444Z,13.83
2023-03-21T10:50:10.883Z,13.88
2023-03-21T10:52:50.994Z,13.94
2023-03-21T10:55:28.815Z,13.99
2023-03-21T10:58:06.975Z,14.04
2023-03-21T11:00:41.464Z,14.06
2023-03-21T11:03:23.820Z,14.05
2023-03-21T11:06:04.199Z,14.05
2023-03-21T11:08:42.401Z,14.04
2023-03-21T11:11:12.511Z,14.04
2023-03-21T11:13:45.006Z,14.01
2023-03-21T11:16:24.384Z,14.00
2023-03-21T11:18:58.557Z,14.00
2023-03-21T11:21:29.913Z,14.01
2023-03-21T11:24:00.495Z,14.00
2023-03-21T11:26:36.707Z,13.99
2023-03-21T11:29:23.223Z,14.01
2023-03-21T11:31:53.788Z,14.03
2023-03-21T11:34:34.421Z,14.01
2023-03-21T11:37:05.344Z,13.99
2023-03-21T11:39:39.844Z,13.98
2023-03-21T11:42:29.576Z,13.98
2023-03-21T11:45:14.033Z,13.98
2023-03-21T11:47:43.158Z,14.01
2023-03-21T11:50:32.644Z,14.04
2023-03-21T11:53:31.289Z,14.09
2023-03-21T11:56:11.759Z,14.12
2023-03-21T11:58:52.577Z,14.12
2023-03-21T12:01:33.459Z,14.10
2023-03-21T12:04:39.691Z,14.07
2023-03-21T12:07:25.097Z,14.05
2023-03-21T12:10:09.119Z,14.05
2023-03-21T12:12:46.484Z,14.07
2023-03-21T12:15:23.314Z,14.11
2023-03-21T12:18:01.952Z,14.14
2023-03-21T12:20:45.761Z,14.16
2023-03-21T12:23:41.085Z,14.16
2023-03-21T12:26:24.257Z,14.17
2023-03-21T12:29:16.192Z,14.20
2023-03-21T12:32:06.491Z,14.23
2023-03-21T12:34:57.554Z,14.24
2023-03-21T12:37:35.439Z,14.24
2023-03-21T12:40:16.670Z,14.23
2023-03-21T12:43:00.685Z,14.23
2023-03-21T12:45:46.481Z,14.25
2023-03-21T12:48:25.493Z,14.27
2023-03-21T12:50:57.465Z,14.29
2023-03-21T12:53:31.063Z,14.30
2023-03-21T12:56:06.957Z,14.30
2023-03-21T12:58:45.103Z,14.32
2023-03-21T13:01:20.006Z,14.36
2023-03-21T13:03:55.726Z,14.39
2023-03-21T13:06:28.832Z,14.44
2023-03-21T13:09:07.725Z,14.48
2023-03-21T13:11:38.773Z,14.50
2023-03-21T13:14:14.351Z,14.51
2023-03-21T13:16:49.364Z,14.52
2023-03-21T13:19:27.775Z,14.52
2023-03-21T13:22:07.903Z,14.55
2023-03-21T13:24:48.600Z,14.56
2023-03-21T13:27:33.761Z,14.57
2023-03-21T13:30:07.400Z,14.60
2023-03-21T13:32:39.962Z,14.64
2023-03-21T13:35:20.390Z,14.67
2023-03-21T13:37:57.782Z,14.70
2023-03-21T13:40:36.522Z,14.71
2023-03-21T13:43:27.569Z,14.72
2023-03-21T13:46:06.266Z,14.72
2023-03-21T13:48:57.759Z,14.73
2023-03-21T13:51:46.436Z,14.74
2023-03-21T13:54:29.744Z,14.76
2023-03-21T13:57:05.332Z,14.77
2023-03-21T13:59:45.424Z,14.76
2023-03-21T14:02:31.588Z,14.76
2023-03-21T14:05:07.047Z,14.77
2023-03-21T14:07:42.076Z,14.77
2023-03-21T14:10:24.670Z,14.79
2023-03-21T14:12:55.879Z,14.80
2023-03-21T14:15:28.384Z,14.78
2023-03-21T14:18:06.403Z,14.76
2023-03-21T14:20:46.941Z,14.73
2023-03-21T14:23:18.916Z,14.71
2023-03-21T14:25:49.324Z,14.72
2023-03-21T14:28:24.062Z,14.74
2023-03-21T14:30:58.084Z,14.76
2023-03-21T14:33:36.684Z,14.75
2023-03-21T14:36:13.296Z,14.71
2023-03-21T14:38:44.004Z,14.68
2023-03-21T14:41:25.983Z,14.65
2023-03-21T14:44:17.425Z,14.62
2023-03-21T14:46:47.948Z,14.59
2023-03-21T14:49:23.417Z,14.60
2023-03-21T14:51:56.939Z,14.62
2023-03-21T14:54:29.021Z,14.66
2023-03-21T14:57:03.472Z,14.70
2023-03-21T14:59:37.167Z,14.73
2023-03-21T15:02:16.444Z,14.76
2023-03-21T15:04:49.454Z,14.78
2023-03-21T15:07:30.319Z,14.78
2023-03-21T15:10:04.733Z,14.77
2023-03-21T15:12:35.877Z,14.76
2023-03-21T15:15:11.307Z,14.76
2023-03-21T15:17:41.845Z,14.77
2023-03-21T15:20:16.821Z,14.77
2023-03-21T15:22:50.518Z,14.76
2023-03-21T15:25:23.636Z,14.74
2023-03-21T15:27:55.737Z,14.71
2023-03-21T15:30:29.120Z,14.68
2023-03-21T15:33:06.446Z,14.64
2023-03-21T15:35:42.856Z,14.62
2023-03-21T15:38:29.311Z,14.61
2023-03-21T15:41:17.275Z,14.59
2023-03-21T15:43:48.870Z,14.56
2023-03-21T15:46:33.681Z,14.54
2023-03-21T15:49:19.117Z,14.52
2023-03-21T15:51:53.427Z,14.51
2023-03-21T15:54:27.590Z,14.51
2023-03-21T15:57:03.542Z,14.51
2023-03-21T15:59:38.855Z,14.49
2023-03-21T16:02:18.533Z,14.49
2023-03-21T16:04:59.997Z,14.49
2023-03-21T16:07:34.486Z,14.49
2023-03-21T16:10:06.182Z,14.49
2023-03-21T16:12:36.671Z,14.49
2023-03-21T16:15:08.803Z,14.50
2023-03-21T16:17:39.718Z,14.50
2023-03-21T16:20:21.295Z,14.51
2023-03-21T16:22:51.937Z,14.51
2023-03-21T16:25:22.855Z,14.51
2023-03-21T16:27:53.392Z,14.52
2023-03-21T16:30:24.547Z,14.52
2023-03-21T16:32:55.050Z,14.51
2023-03-21T16:35:26.396Z,14.49
2023-03-21T16:37:56.876Z,14.47
2023-03-21T16:40:32.661Z,14.46
2023-03-21T16:43:03.422Z,14.46
2023-03-21T16:45:34.068Z,14.45
2023-03-21T16:48:05.393Z,14.45
2023-03-21T16:50:37.803Z,14.44
2023-03-21T16:53:08.583Z,14.44
2023-03-21T16:55:39.368Z,14.44
2023-03-21T16:58:09.873Z,14.43
2023-03-21T17:00:40.510Z,14.43
2023-03-21T17:03:19.023Z,14.42
2023-03-21T17:05:49.951Z,14.42
2023-03-21T17:08:21.955Z,14.41
2023-03-21T17:10:50.989Z,14.41
2023-03-21T17:13:21.567Z,14.40
2023-03-21T17:15:52.048Z,14.40
2023-03-21T17:18:22.545Z,14.40
2023-03-21T17:20:53.010Z,14.41
2023-03-21T17:23:23.519Z,14.42
2023-03-21T17:25:53.937Z,14.43
2023-03-21T17:28:24.433Z,14.43
2023-03-21T17:30:55.182Z,14.42
2023-03-21T17:33:25.839Z,14.41
2023-03-21T17:35:56.420Z,14.39
2023-03-21T17:38:26.965Z,14.38
2023-03-21T17:41:00.242Z,14.37
2023-03-21T17:43:31.345Z,14.37
2023-03-21T17:46:01.956Z,14.35
2023-03-21T17:48:32.750Z,14.34
2023-03-21T17:51:03.385Z,14.33
2023-03-21T17:53:33.875Z,14.32
2023-03-21T17:56:04.336Z,14.30
2023-03-21T17:58:34.828Z,14.29
2023-03-21T18:01:05.808Z,14.28
2023-03-21T18:03:36.294Z,14.27
2023-03-21T18:06:07.824Z,14.26
2023-03-21T18:08:38.402Z,14.25
2023-03-21T18:11:10.301Z,14.24
2023-03-21T18:13:41.333Z,14.23
2023-03-21T18:16:14.774Z,14.21
2023-03-21T18:18:46.726Z,14.20
2023-03-21T18:21:18.946Z,14.19
2023-03-21T18:23:51.083Z,14.17
2023-03-21T18:26:24.010Z,14.17
2023-03-21T18:29:47.364Z,14.16
2023-03-21T18:31:57.529Z,14.15
2023-03-21T18:34:35.024Z,14.14
2023-03-21T18:37:07.566Z,14.14
2023-03-21T18:39:39.191Z,14.13
2023-03-21T18:42:16.667Z,14.12
2023-03-21T18:44:48.193Z,14.13
2023-03-21T18:47:19.176Z,14.15
2023-03-21T18:52:40.937Z,14.21
2023-03-21T18:55:14.741Z,14.23
2023-03-21T18:57:45.873Z,14.24
2023-03-21T19:00:21.784Z,14.27
2023-03-21T19:03:04.273Z,14.28
2023-03-21T19:05:41.152Z,14.27
2023-03-21T19:08:11.698Z,14.27
2023-03-21T19:10:42.363Z,14.27
2023-03-21T19:13:12.871Z,14.25
2023-03-21T19:15:43.485Z,14.26
2023-03-21T19:21:05.674Z,14.23
2023-03-21T19:24:08.030Z,14.23
2023-03-21T19:26:28.129Z,14.21
2023-03-21T19:28:58.633Z,14.20
2023-03-21T19:31:29.241Z,14.18
2023-03-21T19:34:00.125Z,14.17
2023-03-21T19:36:31.155Z,14.15
2023-03-21T19:39:05.085Z,14.14
2023-03-21T19:41:36.363Z,14.13
2023-03-21T19:44:07.373Z,14.11
2023-03-21T19:46:37.847Z,14.10
2023-03-21T19:49:08.570Z,14.09
2023-03-21T19:51:39.384Z,14.08
2023-03-21T19:54:10.414Z,14.08
2023-03-21T19:56:47.067Z,14.07
2023-03-21T19:59:20.577Z,14.06
2023-03-21T20:01:56.482Z,14.05
2023-03-21T20:04:29.073Z,14.05
2023-03-21T20:07:00.272Z,14.04
2023-03-21T20:09:50.456Z,14.04
2023-03-21T20:12:22.112Z,14.04
2023-03-21T20:15:01.609Z,14.08
2023-03-21T20:17:40.033Z,14.11
2023-03-21T20:20:14.995Z,14.13
2023-03-21T20:23:07.435Z,14.15
2023-03-21T20:25:41.960Z,14.16
2023-03-21T20:28:16.871Z,14.16
2023-03-21T20:30:58.611Z,14.16
2023-03-21T20:33:29.526Z,14.16
2023-03-21T20:38:53.874Z,14.14
2023-03-21T20:41:24.566Z,14.13
2023-03-21T20:46:52.470Z,14.11
2023-03-21T20:49:24.483Z,14.09
2023-03-21T20:54:47.714Z,14.04
2023-03-21T20:57:18.324Z,14.02
2023-03-21T20:59:48.793Z,14.00
2023-03-21T21:02:19.316Z,13.98
2023-03-21T21:05:21.461Z,13.98
2023-03-21T21:07:41.844Z,13.97
2023-03-21T21:10:15.328Z,13.95
2023-03-21T21:12:46.357Z,13.94
2023-03-21T21:15:17.734Z,13.92
2023-03-21T21:18:06.700Z,13.91
2023-03-21T21:20:38.852Z,13.89
2023-03-21T21:23:09.876Z,13.88
2023-03-21T21:25:40.406Z,13.88
2023-03-21T21:28:11.836Z,13.87
2023-03-21T21:30:42.841Z,13.86
2023-03-21T21:33:15.150Z,13.85
2023-03-21T21:35:47.870Z,13.84
2023-03-21T21:38:19.944Z,13.83
2023-03-21T21:40:49.861Z,13.82
2023-03-21T21:43:21.257Z,13.81
2023-03-21T21:45:52.494Z,13.80
2023-03-21T21:48:23.275Z,13.80
2023-03-21T21:50:54.387Z,13.83
2023-03-21T21:53:28.366Z,13.86
2023-03-21T21:56:02.065Z,13.88
2023-03-21T21:58:33.794Z,13.89
2023-03-21T22:01:04.546Z,13.91
2023-03-21T22:03:40.971Z,13.93
2023-03-21T22:06:12.175Z,13.94
2023-03-21T22:08:47.243Z,13.95
2023-03-21T22:11:18.688Z,13.95
2023-03-21T22:13:49.632Z,13.95
2023-03-21T22:16:20.160Z,13.96
2023-03-21T22:18:50.666Z,13.95
2023-03-21T22:21:21.259Z,13.96
2023-03-21T22:23:51.701Z,13.95
2023-03-21T22:26:22.212Z,13.95
2023-03-21T22:28:52.818Z,13.94
2023-03-21T22:31:23.933Z,13.93
2023-03-21T22:33:54.408Z,13.92
2023-03-21T22:36:25.033Z,13.92
2023-03-21T22:38:55.810Z,13.91
2023-03-21T22:41:26.266Z,13.89
2023-03-21T22:43:56.729Z,13.89
2023-03-21T22:46:27.703Z,13.88
2023-03-21T22:48:58.183Z,13.88
2023-03-21T22:51:28.745Z,13.87
2023-03-21T22:53:59.167Z,13.86
2023-03-21T22:56:29.693Z,13.85
2023-03-21T22:59:01.084Z,13.83
2023-03-21T23:01:32.148Z,13.83
2023-03-21T23:04:02.854Z,13.82
2023-03-21T23:06:33.577Z,13.82
2023-03-21T23:09:04.084Z,13.81
2023-03-21T23:11:34.591Z,13.80
2023-03-21T23:14:07.926Z,13.80
2023-03-21T23:16:38.732Z,13.79
2023-03-21T23:19:10.435Z,13.77
2023-03-21T23:21:41.575Z,13.77
2023-03-21T23:24:12.933Z,13.76
2023-03-21T23:26:43.718Z,13.76
2023-03-21T23:29:14.317Z,13.75
2023-03-21T23:31:44.818Z,13.74
2023-03-21T23:34:15.713Z,13.73
2023-03-21T23:36:46.226Z,13.72
2023-03-21T23:39:18.554Z,13.72
2023-03-21T23:41:49.037Z,13.71
2023-03-21T23:44:19.545Z,13.72
2023-03-21T23:46:50.006Z,13.73
2023-03-21T23:49:20.536Z,13.73
2023-03-21T23:51:51.417Z,13.72
2023-03-21T23:54:21.901Z,13.72
2023-03-21T23:56:52.379Z,13.72
2023-03-21T23:59:22.867Z,13.73
